Roanoke — WDD9656 — position and weather

sailwx.info

Track history (hours):
 
Tides and Currents Weather Stations Pressure Air Temp Water Temp Dewpoint Dewpoint Depression Visibility Wind Speed Wind Dir Waves Ship Positions

Roanoke

Owner: Vane Line Bunkering, Baltimore, MD. More information available from US FCC via Universal Licensing System and Coast Guard Vessel Documentation Center.

Last reported at 2014-Dec-19 20:15 UTC. Time now 2014-Dec-19 21:02 UTC.
Position N 39°15' W 076°34'.

Length 32 m; draft 13 m.

Type: Towing. MMSI: 367314510.

Date/timePositionNaut miles runAvg speedWind from/ knotsBaromVisibWave heightAir tempDewpointWater temp
2014-Dec-19 20:15N 39°15' W 076°34'0 0.0
2014-Dec-19 19:34N 39°15' W 076°34'0 0.0
2014-Dec-19 18:13N 39°15' W 076°34'0 0.0
2014-Dec-19 16:29N 39°15' W 076°34'0 0.0
2014-Dec-19 13:20N 39°15' W 076°34'0 0.0
2014-Dec-19 12:29N 39°15' W 076°34'1 1.1
2014-Dec-19 11:31N 39°15' W 076°33'0 0.0
2014-Dec-19 10:32N 39°15' W 076°33'0 0.0
2014-Dec-19 09:32N 39°15' W 076°33'0 0.0
2014-Dec-19 08:33N 39°15' W 076°33'0 0.0
2014-Dec-19 07:28N 39°15' W 076°33'0 0.0
2014-Dec-19 06:31N 39°15' W 076°33'0 0.0
2014-Dec-19 05:32N 39°15' W 076°33'0 0.0
2014-Dec-19 04:33N 39°15' W 076°33'0 0.0
2014-Dec-19 03:33N 39°15' W 076°33'0 0.0
2014-Dec-19 02:28N 39°15' W 076°33'0 0.0
2014-Dec-19 01:32N 39°15' W 076°33'0 0.0
2014-Dec-19 00:32N 39°15' W 076°33'0 0.0
2014-Dec-18 23:33N 39°15' W 076°33'0 0.0
2014-Dec-18 22:31N 39°15' W 076°33'0 0.0
2014-Dec-18 21:31N 39°15' W 076°33'0 0.0
2014-Dec-18 20:32N 39°15' W 076°33'0 0.0
2014-Dec-18 19:33N 39°15' W 076°33'0 0.0
2014-Dec-18 18:33N 39°15' W 076°33'0 0.0
2014-Dec-18 17:31N 39°15' W 076°33'0 0.0
2014-Dec-18 16:32N 39°15' W 076°33'0 0.0
2014-Dec-18 15:32N 39°15' W 076°33'0 0.0
2014-Dec-18 14:33N 39°15' W 076°33'0 0.0
2014-Dec-18 13:31N 39°15' W 076°33'0 0.0
2014-Dec-18 12:31N 39°15' W 076°33'0 0.0
2014-Dec-18 11:32N 39°15' W 076°33'0 0.0
2014-Dec-18 10:33N 39°15' W 076°33'0 0.0
2014-Dec-18 09:33N 39°15' W 076°33'0 0.0
2014-Dec-18 08:31N 39°15' W 076°33'3 2.6
2014-Dec-18 07:33N 39°13' W 076°32'5 0.1
2014-Dec-16 12:10N 39°11' W 076°26'5 7.8
2014-Dec-16 11:33N 39°13' W 076°32'3 2.5
2014-Dec-16 10:28N 39°15' W 076°34'0 0.0
2014-Dec-16 09:29N 39°15' W 076°34'0 0.0
2014-Dec-16 08:32N 39°15' W 076°34'0 0.0
2014-Dec-16 07:33N 39°15' W 076°34'0 0.0
2014-Dec-16 06:31N 39°15' W 076°34'0 0.0
2014-Dec-16 05:29N 39°15' W 076°34'0 0.0
2014-Dec-16 04:30N 39°15' W 076°34'0 0.0
2014-Dec-16 03:30N 39°15' W 076°34'0 0.0
2014-Dec-16 02:31N 39°15' W 076°34'0 0.1
2014-Dec-16 01:33N 39°15' W 076°34'1 0.4
2014-Dec-15 23:27N 39°15' W 076°33'0 0.0
2014-Dec-15 22:31N 39°15' W 076°33'0 0.0
2014-Dec-15 21:31N 39°15' W 076°33'0 0.0
2014-Dec-15 20:32N 39°15' W 076°33'0 0.0
2014-Dec-15 19:33N 39°15' W 076°33'0 0.0
2014-Dec-15 18:33N 39°15' W 076°33'0 0.0
2014-Dec-15 17:28N 39°15' W 076°33'0 0.0
2014-Dec-15 16:17N 39°15' W 076°33'0 0.0
2014-Dec-15 15:33N 39°15' W 076°33'1 0.8
2014-Dec-15 14:07N 39°15' W 076°34'0 0.0
2014-Dec-15 13:28N 39°15' W 076°34'0 0.0
2014-Dec-15 12:29N 39°15' W 076°34'1 1.1
2014-Dec-15 11:32N 39°15' W 076°33'0 0.0
2014-Dec-15 10:33N 39°15' W 076°33'0 0.0
2014-Dec-15 09:30N 39°15' W 076°33'0 0.0
2014-Dec-15 08:31N 39°15' W 076°33'0 0.0
2014-Dec-15 07:26N 39°15' W 076°33'0 0.0
2014-Dec-15 06:32N 39°15' W 076°33'0 0.0
2014-Dec-15 05:33N 39°15' W 076°33'0 0.0
2014-Dec-15 04:33N 39°15' W 076°33'0 0.0
2014-Dec-15 03:29N 39°15' W 076°33'0 0.0
2014-Dec-15 02:23N 39°15' W 076°33'0 0.0
2014-Dec-15 01:30N 39°15' W 076°33'0 0.0
2014-Dec-15 00:30N 39°15' W 076°33'0 0.0
2014-Dec-14 23:31N 39°15' W 076°33'0 0.0
2014-Dec-14 22:32N 39°15' W 076°33'0 0.0
2014-Dec-14 21:32N 39°15' W 076°33'0 0.0
2014-Dec-14 20:33N 39°15' W 076°33'0 0.0
2014-Dec-14 19:16N 39°15' W 076°33'0 0.0
2014-Dec-14 18:31N 39°15' W 076°33'0 0.0
2014-Dec-14 17:29N 39°15' W 076°33'0 0.0
2014-Dec-14 16:30N 39°15' W 076°33'0 0.0
2014-Dec-14 15:30N 39°15' W 076°33'0 0.0
2014-Dec-14 14:31N 39°15' W 076°33'0 0.0
2014-Dec-14 13:32N 39°15' W 076°33'0 0.0
2014-Dec-14 12:32N 39°15' W 076°33'0 0.0
2014-Dec-14 11:33N 39°15' W 076°33'0 0.0
2014-Dec-14 10:31N 39°15' W 076°33'0 0.0
2014-Dec-14 09:32N 39°15' W 076°33'0 0.0
2014-Dec-14 08:32N 39°15' W 076°33'0 0.0
2014-Dec-14 07:30N 39°15' W 076°33'0 0.0
2014-Dec-14 06:31N 39°15' W 076°33'0 0.0
2014-Dec-14 05:31N 39°15' W 076°33'0 0.0
2014-Dec-14 04:32N 39°15' W 076°33'0 0.1
2014-Dec-14 03:32N 39°16' W 076°33'0 0.1
2014-Dec-14 02:33N 39°15' W 076°33'0 0.0
2014-Dec-14 01:33N 39°15' W 076°33'0 0.0
2014-Dec-14 00:31N 39°15' W 076°33'0 0.0
2014-Dec-13 23:32N 39°15' W 076°33'0 0.0
2014-Dec-13 22:32N 39°15' W 076°33'0 0.0
2014-Dec-13 21:33N 39°15' W 076°33'0 0.0
2014-Dec-13 20:31N 39°15' W 076°33'0 0.0
2014-Dec-13 19:31N 39°15' W 076°33'0 0.0
2014-Dec-13 18:32N 39°15' W 076°33'0 0.0
2014-Dec-13 17:33N 39°15' W 076°33'0 0.0
2014-Dec-13 16:33N 39°15' W 076°33'0 0.0
2014-Dec-13 15:31N 39°15' W 076°33'3 2.7
2014-Dec-13 14:33N 39°13' W 076°32'9 0.3
2014-Dec-12 07:23N 39°14' W 076°20'5 6.4
2014-Dec-12 06:33N 39°11' W 076°25'6 6.3
2014-Dec-12 05:33N 39°14' W 076°33'2 1.5
2014-Dec-12 04:25N 39°15' W 076°33'0 0.0
2014-Dec-12 03:32N 39°15' W 076°33'0 0.0
2014-Dec-12 02:33N 39°15' W 076°33'0 0.0
2014-Dec-12 01:33N 39°15' W 076°33'0 0.0
2014-Dec-12 00:28N 39°15' W 076°33'0 0.0
2014-Dec-11 23:23N 39°15' W 076°33'0 0.0
2014-Dec-11 22:30N 39°15' W 076°33'0 0.0
2014-Dec-11 21:33N 39°15' W 076°33'0 0.0
2014-Dec-11 20:31N 39°15' W 076°33'0 0.0
2014-Dec-11 19:31N 39°15' W 076°33'0 0.0
2014-Dec-11 18:32N 39°15' W 076°33'0 0.0
2014-Dec-11 17:33N 39°15' W 076°33'0 0.0
2014-Dec-11 16:33N 39°15' W 076°33'0 0.0
2014-Dec-11 15:25N 39°15' W 076°33'1 1.2
2014-Dec-11 14:33N 39°15' W 076°34'0 0.1
2014-Dec-11 13:33N 39°15' W 076°34'0 0.0
2014-Dec-11 12:33N 39°15' W 076°34'1 1.1
2014-Dec-11 11:32N 39°15' W 076°33'0 0.0
2014-Dec-11 10:33N 39°15' W 076°33'0 0.0
2014-Dec-11 09:33N 39°15' W 076°33'0 0.0
2014-Dec-11 08:31N 39°15' W 076°33'0 0.0
2014-Dec-11 07:32N 39°15' W 076°33'0 0.0
2014-Dec-11 06:32N 39°15' W 076°33'0 0.0
2014-Dec-11 05:30N 39°15' W 076°33'0 0.0
2014-Dec-11 04:31N 39°15' W 076°33'0 0.0
2014-Dec-11 03:31N 39°15' W 076°33'0 0.0
2014-Dec-11 02:32N 39°15' W 076°33'0 0.0
2014-Dec-11 01:33N 39°15' W 076°33'0 0.0
2014-Dec-11 00:33N 39°15' W 076°33'0 0.0
2014-Dec-10 23:31N 39°15' W 076°33'0 0.0
2014-Dec-10 22:29N 39°15' W 076°33'0 0.0
2014-Dec-10 21:32N 39°15' W 076°33'0 0.0
2014-Dec-10 20:30N 39°15' W 076°33'0 0.0
2014-Dec-10 19:31N 39°15' W 076°33'0 0.0
2014-Dec-10 18:31N 39°15' W 076°33'0 0.0
2014-Dec-10 17:32N 39°15' W 076°33'0 0.0
2014-Dec-10 16:33N 39°15' W 076°33'0 0.0
2014-Dec-10 15:33N 39°15' W 076°33'0 0.0
2014-Dec-10 14:32N 39°15' W 076°33'0 0.0
2014-Dec-10 13:33N 39°15' W 076°33'0 0.0
2014-Dec-10 12:31N 39°15' W 076°33'0 0.0
2014-Dec-10 11:28N 39°15' W 076°33'1 0.9
2014-Dec-10 10:33N 39°15' W 076°34'0 0.3
2014-Dec-10 09:32N 39°15' W 076°34'1 1.1
2014-Dec-10 08:32N 39°15' W 076°33'0 0.0
2014-Dec-10 07:30N 39°15' W 076°33'0 0.0
2014-Dec-10 06:31N 39°15' W 076°33'0 0.0
2014-Dec-10 05:28N 39°15' W 076°33'0 0.0
2014-Dec-10 04:32N 39°15' W 076°33'0 0.0
2014-Dec-10 03:33N 39°15' W 076°33'0 0.0
2014-Dec-10 02:33N 39°15' W 076°33'0 0.0
2014-Dec-10 01:31N 39°15' W 076°33'1 1.0
2014-Dec-10 00:33N 39°15' W 076°34'0 0.0
2014-Dec-09 22:10N 39°15' W 076°34'0 0.0
2014-Dec-09 21:29N 39°15' W 076°34'0 0.0
2014-Dec-09 20:24N 39°15' W 076°34'  
Track history (hours):
 
Tides and Currents Weather Stations Pressure Air Temp Water Temp Dewpoint Dewpoint Depression Visibility Wind Speed Wind Dir Waves Ship Positions

Roanoke

Owner: Vane Line Bunkering, Baltimore, MD. More information available from US FCC via Universal Licensing System and Coast Guard Vessel Documentation Center.

Last reported at 2014-Dec-19 20:15 UTC. Time now 2014-Dec-19 21:02 UTC.
Position N 39°15' W 076°34'.

Length 32 m; draft 13 m.

Type: Towing. MMSI: 367314510.

Date/timePositionNaut miles runAvg speedWind from/ knotsBaromVisibWave heightAir tempDewpointWater temp
2014-Dec-19 20:15N 39°15' W 076°34'0 0.0
2014-Dec-19 19:34N 39°15' W 076°34'0 0.0
2014-Dec-19 18:13N 39°15' W 076°34'0 0.0
2014-Dec-19 16:29N 39°15' W 076°34'0 0.0
2014-Dec-19 13:20N 39°15' W 076°34'0 0.0
2014-Dec-19 12:29N 39°15' W 076°34'1 1.1
2014-Dec-19 11:31N 39°15' W 076°33'0 0.0
2014-Dec-19 10:32N 39°15' W 076°33'0 0.0
2014-Dec-19 09:32N 39°15' W 076°33'0 0.0
2014-Dec-19 08:33N 39°15' W 076°33'0 0.0
2014-Dec-19 07:28N 39°15' W 076°33'0 0.0
2014-Dec-19 06:31N 39°15' W 076°33'0 0.0
2014-Dec-19 05:32N 39°15' W 076°33'0 0.0
2014-Dec-19 04:33N 39°15' W 076°33'0 0.0
2014-Dec-19 03:33N 39°15' W 076°33'0 0.0
2014-Dec-19 02:28N 39°15' W 076°33'0 0.0
2014-Dec-19 01:32N 39°15' W 076°33'0 0.0
2014-Dec-19 00:32N 39°15' W 076°33'0 0.0
2014-Dec-18 23:33N 39°15' W 076°33'0 0.0
2014-Dec-18 22:31N 39°15' W 076°33'0 0.0
2014-Dec-18 21:31N 39°15' W 076°33'0 0.0
2014-Dec-18 20:32N 39°15' W 076°33'0 0.0
2014-Dec-18 19:33N 39°15' W 076°33'0 0.0
2014-Dec-18 18:33N 39°15' W 076°33'0 0.0
2014-Dec-18 17:31N 39°15' W 076°33'0 0.0
2014-Dec-18 16:32N 39°15' W 076°33'0 0.0
2014-Dec-18 15:32N 39°15' W 076°33'0 0.0
2014-Dec-18 14:33N 39°15' W 076°33'0 0.0
2014-Dec-18 13:31N 39°15' W 076°33'0 0.0
2014-Dec-18 12:31N 39°15' W 076°33'0 0.0
2014-Dec-18 11:32N 39°15' W 076°33'0 0.0
2014-Dec-18 10:33N 39°15' W 076°33'0 0.0
2014-Dec-18 09:33N 39°15' W 076°33'0 0.0
2014-Dec-18 08:31N 39°15' W 076°33'3 2.6
2014-Dec-18 07:33N 39°13' W 076°32'5 0.1
2014-Dec-16 12:10N 39°11' W 076°26'5 7.8
2014-Dec-16 11:33N 39°13' W 076°32'3 2.5
2014-Dec-16 10:28N 39°15' W 076°34'0 0.0
2014-Dec-16 09:29N 39°15' W 076°34'0 0.0
2014-Dec-16 08:32N 39°15' W 076°34'0 0.0
2014-Dec-16 07:33N 39°15' W 076°34'0 0.0
2014-Dec-16 06:31N 39°15' W 076°34'0 0.0
2014-Dec-16 05:29N 39°15' W 076°34'0 0.0
2014-Dec-16 04:30N 39°15' W 076°34'0 0.0
2014-Dec-16 03:30N 39°15' W 076°34'0 0.0
2014-Dec-16 02:31N 39°15' W 076°34'0 0.1
2014-Dec-16 01:33N 39°15' W 076°34'1 0.4
2014-Dec-15 23:27N 39°15' W 076°33'0 0.0
2014-Dec-15 22:31N 39°15' W 076°33'0 0.0
2014-Dec-15 21:31N 39°15' W 076°33'0 0.0
2014-Dec-15 20:32N 39°15' W 076°33'0 0.0
2014-Dec-15 19:33N 39°15' W 076°33'0 0.0
2014-Dec-15 18:33N 39°15' W 076°33'0 0.0
2014-Dec-15 17:28N 39°15' W 076°33'0 0.0
2014-Dec-15 16:17N 39°15' W 076°33'0 0.0
2014-Dec-15 15:33N 39°15' W 076°33'1 0.8
2014-Dec-15 14:07N 39°15' W 076°34'0 0.0
2014-Dec-15 13:28N 39°15' W 076°34'0 0.0
2014-Dec-15 12:29N 39°15' W 076°34'1 1.1
2014-Dec-15 11:32N 39°15' W 076°33'0 0.0
2014-Dec-15 10:33N 39°15' W 076°33'0 0.0
2014-Dec-15 09:30N 39°15' W 076°33'0 0.0
2014-Dec-15 08:31N 39°15' W 076°33'0 0.0
2014-Dec-15 07:26N 39°15' W 076°33'0 0.0
2014-Dec-15 06:32N 39°15' W 076°33'0 0.0
2014-Dec-15 05:33N 39°15' W 076°33'0 0.0
2014-Dec-15 04:33N 39°15' W 076°33'0 0.0
2014-Dec-15 03:29N 39°15' W 076°33'0 0.0
2014-Dec-15 02:23N 39°15' W 076°33'0 0.0
2014-Dec-15 01:30N 39°15' W 076°33'0 0.0
2014-Dec-15 00:30N 39°15' W 076°33'0 0.0
2014-Dec-14 23:31N 39°15' W 076°33'0 0.0
2014-Dec-14 22:32N 39°15' W 076°33'0 0.0
2014-Dec-14 21:32N 39°15' W 076°33'0 0.0
2014-Dec-14 20:33N 39°15' W 076°33'0 0.0
2014-Dec-14 19:16N 39°15' W 076°33'0 0.0
2014-Dec-14 18:31N 39°15' W 076°33'0 0.0
2014-Dec-14 17:29N 39°15' W 076°33'0 0.0
2014-Dec-14 16:30N 39°15' W 076°33'0 0.0
2014-Dec-14 15:30N 39°15' W 076°33'0 0.0
2014-Dec-14 14:31N 39°15' W 076°33'0 0.0
2014-Dec-14 13:32N 39°15' W 076°33'0 0.0
2014-Dec-14 12:32N 39°15' W 076°33'0 0.0
2014-Dec-14 11:33N 39°15' W 076°33'0 0.0
2014-Dec-14 10:31N 39°15' W 076°33'0 0.0
2014-Dec-14 09:32N 39°15' W 076°33'0 0.0
2014-Dec-14 08:32N 39°15' W 076°33'0 0.0
2014-Dec-14 07:30N 39°15' W 076°33'0 0.0
2014-Dec-14 06:31N 39°15' W 076°33'0 0.0
2014-Dec-14 05:31N 39°15' W 076°33'0 0.0
2014-Dec-14 04:32N 39°15' W 076°33'0 0.1
2014-Dec-14 03:32N 39°16' W 076°33'0 0.1
2014-Dec-14 02:33N 39°15' W 076°33'0 0.0
2014-Dec-14 01:33N 39°15' W 076°33'0 0.0
2014-Dec-14 00:31N 39°15' W 076°33'0 0.0
2014-Dec-13 23:32N 39°15' W 076°33'0 0.0
2014-Dec-13 22:32N 39°15' W 076°33'0 0.0
2014-Dec-13 21:33N 39°15' W 076°33'0 0.0
2014-Dec-13 20:31N 39°15' W 076°33'0 0.0
2014-Dec-13 19:31N 39°15' W 076°33'0 0.0
2014-Dec-13 18:32N 39°15' W 076°33'0 0.0
2014-Dec-13 17:33N 39°15' W 076°33'0 0.0
2014-Dec-13 16:33N 39°15' W 076°33'0 0.0
2014-Dec-13 15:31N 39°15' W 076°33'3 2.7
2014-Dec-13 14:33N 39°13' W 076°32'9 0.3
2014-Dec-12 07:23N 39°14' W 076°20'5 6.4
2014-Dec-12 06:33N 39°11' W 076°25'6 6.3
2014-Dec-12 05:33N 39°14' W 076°33'2 1.5
2014-Dec-12 04:25N 39°15' W 076°33'0 0.0
2014-Dec-12 03:32N 39°15' W 076°33'0 0.0
2014-Dec-12 02:33N 39°15' W 076°33'0 0.0
2014-Dec-12 01:33N 39°15' W 076°33'0 0.0
2014-Dec-12 00:28N 39°15' W 076°33'0 0.0
2014-Dec-11 23:23N 39°15' W 076°33'0 0.0
2014-Dec-11 22:30N 39°15' W 076°33'0 0.0
2014-Dec-11 21:33N 39°15' W 076°33'0 0.0
2014-Dec-11 20:31N 39°15' W 076°33'0 0.0
2014-Dec-11 19:31N 39°15' W 076°33'0 0.0
2014-Dec-11 18:32N 39°15' W 076°33'0 0.0
2014-Dec-11 17:33N 39°15' W 076°33'0 0.0
2014-Dec-11 16:33N 39°15' W 076°33'0 0.0
2014-Dec-11 15:25N 39°15' W 076°33'1 1.2
2014-Dec-11 14:33N 39°15' W 076°34'0 0.1
2014-Dec-11 13:33N 39°15' W 076°34'0 0.0
2014-Dec-11 12:33N 39°15' W 076°34'1 1.1
2014-Dec-11 11:32N 39°15' W 076°33'0 0.0
2014-Dec-11 10:33N 39°15' W 076°33'0 0.0
2014-Dec-11 09:33N 39°15' W 076°33'0 0.0
2014-Dec-11 08:31N 39°15' W 076°33'0 0.0
2014-Dec-11 07:32N 39°15' W 076°33'0 0.0
2014-Dec-11 06:32N 39°15' W 076°33'0 0.0
2014-Dec-11 05:30N 39°15' W 076°33'0 0.0
2014-Dec-11 04:31N 39°15' W 076°33'0 0.0
2014-Dec-11 03:31N 39°15' W 076°33'0 0.0
2014-Dec-11 02:32N 39°15' W 076°33'0 0.0
2014-Dec-11 01:33N 39°15' W 076°33'0 0.0
2014-Dec-11 00:33N 39°15' W 076°33'0 0.0
2014-Dec-10 23:31N 39°15' W 076°33'0 0.0
2014-Dec-10 22:29N 39°15' W 076°33'0 0.0
2014-Dec-10 21:32N 39°15' W 076°33'0 0.0
2014-Dec-10 20:30N 39°15' W 076°33'0 0.0
2014-Dec-10 19:31N 39°15' W 076°33'0 0.0
2014-Dec-10 18:31N 39°15' W 076°33'0 0.0
2014-Dec-10 17:32N 39°15' W 076°33'0 0.0
2014-Dec-10 16:33N 39°15' W 076°33'0 0.0
2014-Dec-10 15:33N 39°15' W 076°33'0 0.0
2014-Dec-10 14:32N 39°15' W 076°33'0 0.0
2014-Dec-10 13:33N 39°15' W 076°33'0 0.0
2014-Dec-10 12:31N 39°15' W 076°33'0 0.0
2014-Dec-10 11:28N 39°15' W 076°33'1 0.9
2014-Dec-10 10:33N 39°15' W 076°34'0 0.3
2014-Dec-10 09:32N 39°15' W 076°34'1 1.1
2014-Dec-10 08:32N 39°15' W 076°33'0 0.0
2014-Dec-10 07:30N 39°15' W 076°33'0 0.0
2014-Dec-10 06:31N 39°15' W 076°33'0 0.0
2014-Dec-10 05:28N 39°15' W 076°33'0 0.0
2014-Dec-10 04:32N 39°15' W 076°33'0 0.0
2014-Dec-10 03:33N 39°15' W 076°33'0 0.0
2014-Dec-10 02:33N 39°15' W 076°33'0 0.0
2014-Dec-10 01:31N 39°15' W 076°33'1 1.0
2014-Dec-10 00:33N 39°15' W 076°34'0 0.0
2014-Dec-09 22:10N 39°15' W 076°34'0 0.0
2014-Dec-09 21:29N 39°15' W 076°34'0 0.0
2014-Dec-09 20:24N 39°15' W 076°34'  

Dump ship's entire track history